sensor_id;sensor_type;location;lat;lon;timestamp;pressure;altitude;pressure_sealevel;temperature;humidity
40998;BME280;26740;45.944;12.480;2022-09-09T00:02:21;100843.75;;;20.56;100.00
40998;BME280;26740;45.944;12.480;2022-09-09T00:05:00;100851.91;;;20.58;100.00
40998;BME280;26740;45.944;12.480;2022-09-09T00:15:14;100843.75;;;20.56;100.00
40998;BME280;26740;45.944;12.480;2022-09-09T00:17:53;100845.91;;;20.37;100.00
40998;BME280;26740;45.944;12.480;2022-09-09T00:23:14;100851.56;;;20.00;100.00
40998;BME280;26740;45.944;12.480;2022-09-09T00:28:38;100850.03;;;19.80;100.00
40998;BME280;26740;45.944;12.480;2022-09-09T00:31:12;100856.88;;;19.60;100.00
40998;BME280;26740;45.944;12.480;2022-09-09T00:33:39;100859.63;;;19.38;100.00
40998;BME280;26740;45.944;12.480;2022-09-09T00:36:13;100855.81;;;19.28;100.00
40998;BME280;26740;45.944;12.480;2022-09-09T00:41:47;100850.72;;;19.30;100.00
40998;BME280;26740;45.944;12.480;2022-09-09T00:46:50;100866.06;;;19.24;100.00
40998;BME280;26740;45.944;12.480;2022-09-09T00:55:22;100868.84;;;19.10;100.00
40998;BME280;26740;45.944;12.480;2022-09-09T00:57:53;100858.53;;;19.33;100.00
40998;BME280;26740;45.944;12.480;2022-09-09T01:03:18;100845.31;;;19.48;100.00
40998;BME280;26740;45.944;12.480;2022-09-09T01:11:10;100851.03;;;19.57;100.00
40998;BME280;26740;45.944;12.480;2022-09-09T01:13:42;100841.88;;;19.65;100.00
40998;BME280;26740;45.944;12.480;2022-09-09T01:16:12;100839.78;;;19.70;100.00
40998;BME280;26740;45.944;12.480;2022-09-09T01:18:43;100840.38;;;19.67;100.00
40998;BME280;26740;45.944;12.480;2022-09-09T01:21:43;100843.00;;;19.64;100.00
40998;BME280;26740;45.944;12.480;2022-09-09T01:26:46;100842.59;;;19.70;100.00
40998;BME280;26740;45.944;12.480;2022-09-09T01:29:17;100837.91;;;19.66;100.00
40998;BME280;26740;45.944;12.480;2022-09-09T01:34:18;100832.69;;;19.59;100.00
40998;BME280;26740;45.944;12.480;2022-09-09T01:39:26;100830.81;;;19.82;100.00
40998;BME280;26740;45.944;12.480;2022-09-09T01:41:53;100833.13;;;19.80;100.00
40998;BME280;26740;45.944;12.480;2022-09-09T01:44:19;100828.72;;;19.74;100.00
40998;BME280;26740;45.944;12.480;2022-09-09T01:46:45;100834.25;;;19.65;100.00
40998;BME280;26740;45.944;12.480;2022-09-09T01:49:11;100829.47;;;19.52;100.00
40998;BME280;26740;45.944;12.480;2022-09-09T01:51:37;100837.50;;;19.45;100.00
40998;BME280;26740;45.944;12.480;2022-09-09T01:54:05;100833.31;;;19.42;100.00
40998;BME280;26740;45.944;12.480;2022-09-09T02:04:43;100831.75;;;19.50;100.00
40998;BME280;26740;45.944;12.480;2022-09-09T02:09:57;100830.59;;;19.51;100.00
40998;BME280;26740;45.944;12.480;2022-09-09T02:12:25;100835.41;;;19.50;100.00
40998;BME280;26740;45.944;12.480;2022-09-09T02:15:07;100829.78;;;19.50;100.00
40998;BME280;26740;45.944;12.480;2022-09-09T02:17:38;100835.09;;;19.52;100.00
40998;BME280;26740;45.944;12.480;2022-09-09T02:20:12;100827.38;;;19.58;100.00
40998;BME280;26740;45.944;12.480;2022-09-09T02:22:42;100823.06;;;19.60;100.00
40998;BME280;26740;45.944;12.480;2022-09-09T02:25:14;100820.81;;;19.48;100.00
40998;BME280;26740;45.944;12.480;2022-09-09T02:27:41;100818.41;;;19.42;100.00
40998;BME280;26740;45.944;12.480;2022-09-09T02:30:09;100816.50;;;19.23;100.00
40998;BME280;26740;45.944;12.480;2022-09-09T02:32:36;100820.69;;;19.12;100.00
40998;BME280;26740;45.944;12.480;2022-09-09T02:35:10;100820.88;;;19.02;100.00
40998;BME280;26740;45.944;12.480;2022-09-09T02:37:42;100816.19;;;18.97;100.00
40998;BME280;26740;45.944;12.480;2022-09-09T02:40:11;100816.50;;;18.96;100.00
40998;BME280;26740;45.944;12.480;2022-09-09T02:42:40;100817.94;;;18.93;100.00
40998;BME280;26740;45.944;12.480;2022-09-09T02:45:08;100826.78;;;18.86;100.00
40998;BME280;26740;45.944;12.480;2022-09-09T02:50:42;100822.13;;;18.96;100.00
40998;BME280;26740;45.944;12.480;2022-09-09T02:53:17;100816.41;;;19.01;100.00
40998;BME280;26740;45.944;12.480;2022-09-09T02:56:07;100814.72;;;19.00;100.00
40998;BME280;26740;45.944;12.480;2022-09-09T02:58:35;100817.97;;;19.07;100.00
40998;BME280;26740;45.944;12.480;2022-09-09T03:01:02;100809.13;;;19.13;100.00
40998;BME280;26740;45.944;12.480;2022-09-09T03:03:28;100815.06;;;19.12;100.00
40998;BME280;26740;45.944;12.480;2022-09-09T03:05:54;100808.50;;;19.17;100.00
40998;BME280;26740;45.944;12.480;2022-09-09T03:08:19;100811.31;;;19.17;100.00
40998;BME280;26740;45.944;12.480;2022-09-09T03:10:45;100816.81;;;19.22;100.00
40998;BME280;26740;45.944;12.480;2022-09-09T03:13:11;100808.81;;;19.29;100.00
40998;BME280;26740;45.944;12.480;2022-09-09T03:15:38;100810.16;;;19.31;100.00
40998;BME280;26740;45.944;12.480;2022-09-09T03:18:03;100802.22;;;19.33;100.00
40998;BME280;26740;45.944;12.480;2022-09-09T03:20:30;100803.06;;;19.34;100.00
40998;BME280;26740;45.944;12.480;2022-09-09T03:22:56;100800.78;;;19.36;100.00
40998;BME280;26740;45.944;12.480;2022-09-09T03:25:23;100797.66;;;19.38;100.00
40998;BME280;26740;45.944;12.480;2022-09-09T03:27:52;100792.03;;;19.38;100.00
40998;BME280;26740;45.944;12.480;2022-09-09T03:30:24;100798.28;;;19.35;100.00
40998;BME280;26740;45.944;12.480;2022-09-09T03:32:49;100795.78;;;19.33;100.00
40998;BME280;26740;45.944;12.480;2022-09-09T03:35:15;100795.06;;;19.27;100.00
40998;BME280;26740;45.944;12.480;2022-09-09T03:37:41;100798.06;;;19.17;100.00
40998;BME280;26740;45.944;12.480;2022-09-09T03:40:07;100785.78;;;19.13;100.00
40998;BME280;26740;45.944;12.480;2022-09-09T03:42:35;100789.50;;;19.08;100.00
40998;BME280;26740;45.944;12.480;2022-09-09T03:45:06;100797.44;;;19.06;100.00
40998;BME280;26740;45.944;12.480;2022-09-09T03:47:34;100793.25;;;19.04;100.00
40998;BME280;26740;45.944;12.480;2022-09-09T03:49:59;100793.25;;;19.04;100.00
40998;BME280;26740;45.944;12.480;2022-09-09T03:52:25;100794.41;;;19.03;100.00
40998;BME280;26740;45.944;12.480;2022-09-09T03:54:52;100797.44;;;19.06;100.00
40998;BME280;26740;45.944;12.480;2022-09-09T03:57:18;100786.81;;;19.17;100.00
40998;BME280;26740;45.944;12.480;2022-09-09T03:59:46;100789.72;;;19.12;100.00
40998;BME280;26740;45.944;12.480;2022-09-09T04:02:11;100788.88;;;18.98;100.00
40998;BME280;26740;45.944;12.480;2022-09-09T04:04:37;100786.59;;;19.00;100.00
40998;BME280;26740;45.944;12.480;2022-09-09T04:07:03;100778.75;;;18.97;100.00
40998;BME280;26740;45.944;12.480;2022-09-09T04:09:30;100774.91;;;18.92;100.00
40998;BME280;26740;45.944;12.480;2022-09-09T04:11:55;100777.59;;;18.84;100.00
40998;BME280;26740;45.944;12.480;2022-09-09T04:14:21;100776.78;;;18.83;100.00
40998;BME280;26740;45.944;12.480;2022-09-09T04:16:47;100790.59;;;18.80;100.00
40998;BME280;26740;45.944;12.480;2022-09-09T04:19:13;100799.34;;;18.78;100.00
40998;BME280;26740;45.944;12.480;2022-09-09T04:21:40;100790.91;;;18.78;100.00
40998;BME280;26740;45.944;12.480;2022-09-09T04:24:07;100793.41;;;18.80;100.00
40998;BME280;26740;45.944;12.480;2022-09-09T04:26:34;100788.03;;;18.83;100.00
40998;BME280;26740;45.944;12.480;2022-09-09T04:29:00;100784.06;;;18.84;100.00
40998;BME280;26740;45.944;12.480;2022-09-09T04:31:25;100784.63;;;18.81;100.00
40998;BME280;26740;45.944;12.480;2022-09-09T04:33:51;100780.31;;;18.89;100.00
40998;BME280;26740;45.944;12.480;2022-09-09T04:36:18;100777.81;;;18.87;100.00
40998;BME280;26740;45.944;12.480;2022-09-09T04:38:46;100771.88;;;18.89;100.00
40998;BME280;26740;45.944;12.480;2022-09-09T04:41:14;100774.38;;;18.90;100.00
40998;BME280;26740;45.944;12.480;2022-09-09T04:43:40;100767.59;;;18.91;100.00
40998;BME280;26740;45.944;12.480;2022-09-09T04:46:07;100769.81;;;18.94;100.00
40998;BME280;26740;45.944;12.480;2022-09-09T04:48:32;100774.38;;;18.90;100.00
40998;BME280;26740;45.944;12.480;2022-09-09T04:51:00;100775.00;;;18.87;100.00
40998;BME280;26740;45.944;12.480;2022-09-09T04:53:27;100784.59;;;19.00;100.00
40998;BME280;26740;45.944;12.480;2022-09-09T04:56:18;100777.00;;;19.01;100.00
40998;BME280;26740;45.944;12.480;2022-09-09T04:58:44;100773.44;;;19.09;100.00
40998;BME280;26740;45.944;12.480;2022-09-09T05:01:19;100773.88;;;19.16;100.00
40998;BME280;26740;45.944;12.480;2022-09-09T05:03:46;100769.91;;;19.17;100.00
40998;BME280;26740;45.944;12.480;2022-09-09T05:06:20;100773.66;;;19.40;100.00
40998;BME280;26740;45.944;12.480;2022-09-09T05:08:47;100776.78;;;19.52;100.00
40998;BME280;26740;45.944;12.480;2022-09-09T05:13:45;100781.34;;;19.76;100.00
40998;BME280;26740;45.944;12.480;2022-09-09T05:16:12;100785.31;;;19.89;100.00
40998;BME280;26740;45.944;12.480;2022-09-09T05:18:39;100788.91;;;20.03;100.00
40998;BME280;26740;45.944;12.480;2022-09-09T05:21:06;100782.41;;;20.03;100.00
40998;BME280;26740;45.944;12.480;2022-09-09T05:23:33;100778.72;;;20.16;100.00
40998;BME280;26740;45.944;12.480;2022-09-09T05:25:59;100784.69;;;20.15;100.00
40998;BME280;26740;45.944;12.480;2022-09-09T05:28:26;100791.81;;;20.12;100.00
40998;BME280;26740;45.944;12.480;2022-09-09T05:31:00;100793.47;;;20.13;100.00
40998;BME280;26740;45.944;12.480;2022-09-09T05:33:29;100793.97;;;20.15;100.00
40998;BME280;26740;45.944;12.480;2022-09-09T05:36:00;100804.41;;;20.15;100.00
40998;BME280;26740;45.944;12.480;2022-09-09T05:38:27;100801.41;;;20.11;100.00
40998;BME280;26740;45.944;12.480;2022-09-09T05:40:53;100809.16;;;20.05;100.00
40998;BME280;26740;45.944;12.480;2022-09-09T05:43:22;100805.72;;;20.08;100.00
40998;BME280;26740;45.944;12.480;2022-09-09T05:45:58;100806.41;;;20.14;100.00
40998;BME280;26740;45.944;12.480;2022-09-09T05:48:31;100808.25;;;20.19;100.00
40998;BME280;26740;45.944;12.480;2022-09-09T05:50:58;100810.66;;;20.25;100.00
40998;BME280;26740;45.944;12.480;2022-09-09T05:53:25;100811.88;;;20.33;100.00
40998;BME280;26740;45.944;12.480;2022-09-09T05:56:00;100801.00;;;20.40;100.00
40998;BME280;26740;45.944;12.480;2022-09-09T05:58:30;100795.34;;;20.40;100.00
40998;BME280;26740;45.944;12.480;2022-09-09T06:01:06;100802.38;;;20.52;100.00
40998;BME280;26740;45.944;12.480;2022-09-09T06:03:34;100805.59;;;20.59;100.00
40998;BME280;26740;45.944;12.480;2022-09-09T06:06:03;100793.63;;;20.76;100.00
40998;BME280;26740;45.944;12.480;2022-09-09T06:08:32;100809.22;;;21.05;100.00
40998;BME280;26740;45.944;12.480;2022-09-09T06:11:01;100805.69;;;21.30;100.00
40998;BME280;26740;45.944;12.480;2022-09-09T06:13:29;100799.44;;;21.51;100.00
40998;BME280;26740;45.944;12.480;2022-09-09T06:15:55;100790.47;;;21.49;100.00
40998;BME280;26740;45.944;12.480;2022-09-09T06:18:21;100780.34;;;21.48;100.00
40998;BME280;26740;45.944;12.480;2022-09-09T06:20:57;100789.66;;;21.48;100.00
40998;BME280;26740;45.944;12.480;2022-09-09T06:23:24;100790.00;;;21.55;100.00
40998;BME280;26740;45.944;12.480;2022-09-09T06:25:50;100789.53;;;21.62;100.00
40998;BME280;26740;45.944;12.480;2022-09-09T06:28:17;100790.81;;;21.56;100.00
40998;BME280;26740;45.944;12.480;2022-09-09T06:30:43;100794.16;;;21.58;100.00
40998;BME280;26740;45.944;12.480;2022-09-09T06:33:10;100784.13;;;21.43;100.00
40998;BME280;26740;45.944;12.480;2022-09-09T06:35:35;100785.41;;;21.37;100.00
40998;BME280;26740;45.944;12.480;2022-09-09T06:38:01;100784.09;;;21.34;100.00
40998;BME280;26740;45.944;12.480;2022-09-09T06:40:26;100785.94;;;21.39;100.00
40998;BME280;26740;45.944;12.480;2022-09-09T06:42:52;100782.25;;;21.38;100.00
40998;BME280;26740;45.944;12.480;2022-09-09T06:45:18;100783.34;;;21.51;100.00
40998;BME280;26740;45.944;12.480;2022-09-09T06:47:44;100783.00;;;21.62;100.00
40998;BME280;26740;45.944;12.480;2022-09-09T06:50:10;100782.56;;;21.86;100.00
40998;BME280;26740;45.944;12.480;2022-09-09T06:52:37;100785.59;;;22.15;100.00
40998;BME280;26740;45.944;12.480;2022-09-09T06:55:03;100776.81;;;23.38;100.00
40998;BME280;26740;45.944;12.480;2022-09-09T06:57:29;100777.84;;;23.63;100.00
40998;BME280;26740;45.944;12.480;2022-09-09T06:59:54;100774.13;;;23.71;100.00
40998;BME280;26740;45.944;12.480;2022-09-09T07:02:20;100770.72;;;23.87;100.00
40998;BME280;26740;45.944;12.480;2022-09-09T07:04:46;100779.38;;;24.11;100.00
40998;BME280;26740;45.944;12.480;2022-09-09T07:07:12;100780.44;;;24.61;100.00
40998;BME280;26740;45.944;12.480;2022-09-09T07:09:40;100782.38;;;24.48;100.00
40998;BME280;26740;45.944;12.480;2022-09-09T07:12:06;100776.31;;;24.37;100.00
40998;BME280;26740;45.944;12.480;2022-09-09T07:14:32;100763.50;;;24.10;100.00
40998;BME280;26740;45.944;12.480;2022-09-09T07:17:01;100765.06;;;23.57;100.00
40998;BME280;26740;45.944;12.480;2022-09-09T07:19:26;100773.34;;;23.62;100.00
40998;BME280;26740;45.944;12.480;2022-09-09T07:21:52;100764.47;;;23.72;100.00
40998;BME280;26740;45.944;12.480;2022-09-09T07:24:17;100767.53;;;23.88;100.00
40998;BME280;26740;45.944;12.480;2022-09-09T07:26:43;100776.66;;;23.94;100.00
40998;BME280;26740;45.944;12.480;2022-09-09T07:29:09;100770.25;;;24.06;100.00
40998;BME280;26740;45.944;12.480;2022-09-09T07:31:37;100771.41;;;23.83;100.00
40998;BME280;26740;45.944;12.480;2022-09-09T07:34:03;100771.19;;;23.89;100.00
40998;BME280;26740;45.944;12.480;2022-09-09T07:36:39;100778.56;;;24.11;100.00
40998;BME280;26740;45.944;12.480;2022-09-09T07:39:08;100783.50;;;24.56;100.00
40998;BME280;26740;45.944;12.480;2022-09-09T07:41:43;100785.31;;;24.39;100.00
40998;BME280;26740;45.944;12.480;2022-09-09T07:44:18;100796.94;;;25.26;100.00
40998;BME280;26740;45.944;12.480;2022-09-09T07:46:46;100797.63;;;25.84;100.00
40998;BME280;26740;45.944;12.480;2022-09-09T07:49:13;100800.59;;;25.26;100.00
40998;BME280;26740;45.944;12.480;2022-09-09T07:51:41;100806.53;;;24.88;100.00
40998;BME280;26740;45.944;12.480;2022-09-09T07:54:09;100802.47;;;24.22;100.00
40998;BME280;26740;45.944;12.480;2022-09-09T07:56:37;100808.44;;;23.48;100.00
40998;BME280;26740;45.944;12.480;2022-09-09T07:59:03;100805.44;;;23.06;100.00
40998;BME280;26740;45.944;12.480;2022-09-09T08:01:34;100821.31;;;22.90;100.00
40998;BME280;26740;45.944;12.480;2022-09-09T08:04:22;100828.16;;;22.80;100.00
40998;BME280;26740;45.944;12.480;2022-09-09T08:07:06;100826.97;;;22.81;100.00
40998;BME280;26740;45.944;12.480;2022-09-09T08:09:31;100832.47;;;24.44;100.00
40998;BME280;26740;45.944;12.480;2022-09-09T08:11:59;100818.19;;;25.07;100.00
40998;BME280;26740;45.944;12.480;2022-09-09T08:14:26;100816.94;;;25.29;100.00
40998;BME280;26740;45.944;12.480;2022-09-09T08:16:52;100827.59;;;24.74;100.00
40998;BME280;26740;45.944;12.480;2022-09-09T08:19:19;100826.78;;;25.81;100.00
40998;BME280;26740;45.944;12.480;2022-09-09T08:21:45;100835.97;;;26.56;100.00
40998;BME280;26740;45.944;12.480;2022-09-09T08:24:12;100823.81;;;25.78;100.00
40998;BME280;26740;45.944;12.480;2022-09-09T08:26:42;100822.59;;;24.29;100.00
40998;BME280;26740;45.944;12.480;2022-09-09T08:29:09;100823.44;;;24.09;100.00
40998;BME280;26740;45.944;12.480;2022-09-09T08:31:47;100828.78;;;25.31;100.00
40998;BME280;26740;45.944;12.480;2022-09-09T08:34:13;100826.72;;;24.74;100.00
40998;BME280;26740;45.944;12.480;2022-09-09T08:36:42;100839.38;;;24.97;100.00
40998;BME280;26740;45.944;12.480;2022-09-09T08:39:09;100828.59;;;26.39;100.00
40998;BME280;26740;45.944;12.480;2022-09-09T08:52:51;100856.16;;;24.06;100.00
40998;BME280;26740;45.944;12.480;2022-09-09T08:55:35;100848.16;;;24.29;100.00
40998;BME280;26740;45.944;12.480;2022-09-09T08:58:25;100851.75;;;24.93;100.00
40998;BME280;26740;45.944;12.480;2022-09-09T09:03:59;100852.56;;;23.97;100.00
40998;BME280;26740;45.944;12.480;2022-09-09T09:11:41;100846.31;;;23.82;100.00
40998;BME280;26740;45.944;12.480;2022-09-09T09:19:14;100832.88;;;24.64;100.00
40998;BME280;26740;45.944;12.480;2022-09-09T09:28:11;100835.31;;;27.98;100.00
40998;BME280;26740;45.944;12.480;2022-09-09T09:30:42;100839.63;;;28.08;100.00
40998;BME280;26740;45.944;12.480;2022-09-09T09:33:21;100836.81;;;27.76;100.00
40998;BME280;26740;45.944;12.480;2022-09-09T09:35:50;100836.28;;;27.71;100.00
40998;BME280;26740;45.944;12.480;2022-09-09T09:38:21;100832.91;;;27.85;100.00
40998;BME280;26740;45.944;12.480;2022-09-09T09:40:55;100832.50;;;29.16;100.00
40998;BME280;26740;45.944;12.480;2022-09-09T09:43:33;100826.63;;;30.04;100.00
40998;BME280;26740;45.944;12.480;2022-09-09T09:46:00;100820.13;;;28.30;100.00
40998;BME280;26740;45.944;12.480;2022-09-09T09:48:26;100817.81;;;26.89;100.00
40998;BME280;26740;45.944;12.480;2022-09-09T09:51:14;100822.44;;;26.37;100.00
40998;BME280;26740;45.944;12.480;2022-09-09T09:53:42;100813.91;;;26.65;100.00
40998;BME280;26740;45.944;12.480;2022-09-09T09:56:10;100812.09;;;25.79;100.00
40998;BME280;26740;45.944;12.480;2022-09-09T10:04:00;100813.91;;;29.75;99.74
40998;BME280;26740;45.944;12.480;2022-09-09T10:06:35;100815.06;;;29.97;79.39
40998;BME280;26740;45.944;12.480;2022-09-09T10:09:17;100817.84;;;31.22;76.34
40998;BME280;26740;45.944;12.480;2022-09-09T10:14:52;100815.88;;;30.58;68.53
40998;BME280;26740;45.944;12.480;2022-09-09T10:31:16;100793.38;;;26.88;85.42
40998;BME280;26740;45.944;12.480;2022-09-09T10:36:43;100788.06;;;29.98;72.05
40998;BME280;26740;45.944;12.480;2022-09-09T10:39:38;100795.53;;;29.26;74.48
40998;BME280;26740;45.944;12.480;2022-09-09T10:42:14;100791.00;;;29.75;75.64
40998;BME280;26740;45.944;12.480;2022-09-09T10:44:56;100807.16;;;29.64;75.44
40998;BME280;26740;45.944;12.480;2022-09-09T10:47:41;100798.31;;;31.38;73.32
40998;BME280;26740;45.944;12.480;2022-09-09T10:55:45;100784.75;;;30.27;69.99
40998;BME280;26740;45.944;12.480;2022-09-09T10:59:04;100780.59;;;29.63;71.40
40998;BME280;26740;45.944;12.480;2022-09-09T11:01:57;100784.44;;;29.48;73.45
40998;BME280;26740;45.944;12.480;2022-09-09T11:04:32;100782.84;;;28.62;72.12
40998;BME280;26740;45.944;12.480;2022-09-09T11:06:58;100784.31;;;28.16;75.20
40998;BME280;26740;45.944;12.480;2022-09-09T11:09:35;100776.91;;;28.70;76.49
40998;BME280;26740;45.944;12.480;2022-09-09T11:12:03;100778.09;;;29.35;75.44
40998;BME280;26740;45.944;12.480;2022-09-09T11:14:42;100771.44;;;31.13;72.28
40998;BME280;26740;45.944;12.480;2022-09-09T11:17:29;100787.47;;;29.85;70.03
40998;BME280;26740;45.944;12.480;2022-09-09T11:19:58;100792.63;;;30.33;74.01
40998;BME280;26740;45.944;12.480;2022-09-09T11:22:37;100784.91;;;30.07;72.00
40998;BME280;26740;45.944;12.480;2022-09-09T11:25:14;100780.94;;;31.21;69.17
40998;BME280;26740;45.944;12.480;2022-09-09T11:30:38;100773.63;;;30.48;70.46
40998;BME280;26740;45.944;12.480;2022-09-09T11:38:47;100762.00;;;28.81;73.42
40998;BME280;26740;45.944;12.480;2022-09-09T11:41:17;100759.47;;;28.36;76.09
40998;BME280;26740;45.944;12.480;2022-09-09T11:43:51;100758.41;;;28.25;76.31
40998;BME280;26740;45.944;12.480;2022-09-09T11:46:20;100766.91;;;28.80;75.08
40998;BME280;26740;45.944;12.480;2022-09-09T11:49:05;100758.31;;;28.41;75.41
40998;BME280;26740;45.944;12.480;2022-09-09T11:51:33;100755.84;;;29.02;73.86
40998;BME280;26740;45.944;12.480;2022-09-09T11:54:03;100736.78;;;28.05;79.68
40998;BME280;26740;45.944;12.480;2022-09-09T11:56:48;100752.44;;;28.92;74.93
40998;BME280;26740;45.944;12.480;2022-09-09T11:59:32;100763.38;;;29.86;74.64
40998;BME280;26740;45.944;12.480;2022-09-09T12:02:12;100763.81;;;29.89;75.78
40998;BME280;26740;45.944;12.480;2022-09-09T12:04:49;100752.94;;;30.66;74.09
40998;BME280;26740;45.944;12.480;2022-09-09T12:07:32;100744.72;;;27.60;76.34
40998;BME280;26740;45.944;12.480;2022-09-09T12:12:47;100746.41;;;28.55;71.94
40998;BME280;26740;45.944;12.480;2022-09-09T12:17:43;100739.97;;;26.69;80.50
40998;BME280;26740;45.944;12.480;2022-09-09T12:20:16;100739.47;;;26.38;80.31
40998;BME280;26740;45.944;12.480;2022-09-09T12:28:21;100747.75;;;28.22;73.72
40998;BME280;26740;45.944;12.480;2022-09-09T12:31:51;100740.88;;;29.58;71.72
40998;BME280;26740;45.944;12.480;2022-09-09T12:33:45;100734.66;;;29.53;68.64
40998;BME280;26740;45.944;12.480;2022-09-09T12:36:16;100740.06;;;29.11;70.17
40998;BME280;26740;45.944;12.480;2022-09-09T12:38:45;100724.72;;;28.73;71.38
40998;BME280;26740;45.944;12.480;2022-09-09T12:41:23;100716.81;;;29.13;73.37
40998;BME280;26740;45.944;12.480;2022-09-09T12:43:50;100719.06;;;29.50;67.74
40998;BME280;26740;45.944;12.480;2022-09-09T12:46:40;100733.78;;;28.56;71.10
40998;BME280;26740;45.944;12.480;2022-09-09T12:49:35;100723.56;;;27.96;73.46
40998;BME280;26740;45.944;12.480;2022-09-09T12:52:34;100716.25;;;26.96;75.63
40998;BME280;26740;45.944;12.480;2022-09-09T12:55:04;100724.53;;;26.41;75.57
40998;BME280;26740;45.944;12.480;2022-09-09T12:57:36;100724.69;;;26.33;74.03
40998;BME280;26740;45.944;12.480;2022-09-09T13:00:15;100731.34;;;26.08;75.91
40998;BME280;26740;45.944;12.480;2022-09-09T13:02:56;100724.47;;;25.85;79.25
40998;BME280;26740;45.944;12.480;2022-09-09T13:05:28;100726.00;;;25.54;81.71
40998;BME280;26740;45.944;12.480;2022-09-09T13:08:07;100725.50;;;25.15;83.97
40998;BME280;26740;45.944;12.480;2022-09-09T13:10:48;100728.56;;;24.97;87.69
40998;BME280;26740;45.944;12.480;2022-09-09T13:13:25;100729.97;;;24.79;88.72
40998;BME280;26740;45.944;12.480;2022-09-09T13:15:59;100724.25;;;24.67;88.20
40998;BME280;26740;45.944;12.480;2022-09-09T13:18:37;100717.63;;;24.63;89.60
40998;BME280;26740;45.944;12.480;2022-09-09T13:21:05;100726.03;;;24.59;92.87
40998;BME280;26740;45.944;12.480;2022-09-09T13:23:34;100731.16;;;24.45;93.10
40998;BME280;26740;45.944;12.480;2022-09-09T13:28:49;100725.78;;;24.31;95.65
40998;BME280;26740;45.944;12.480;2022-09-09T13:31:24;100717.00;;;24.23;95.20
40998;BME280;26740;45.944;12.480;2022-09-09T13:33:53;100711.22;;;24.20;95.19
40998;BME280;26740;45.944;12.480;2022-09-09T13:36:31;100708.28;;;24.29;93.61
40998;BME280;26740;45.944;12.480;2022-09-09T13:39:03;100705.66;;;24.23;91.37
40998;BME280;26740;45.944;12.480;2022-09-09T13:43:57;100696.34;;;24.23;95.54
40998;BME280;26740;45.944;12.480;2022-09-09T13:46:41;100685.31;;;24.21;94.90
40998;BME280;26740;45.944;12.480;2022-09-09T13:51:41;100693.75;;;24.30;98.50
40998;BME280;26740;45.944;12.480;2022-09-09T13:54:11;100695.75;;;24.30;97.52
40998;BME280;26740;45.944;12.480;2022-09-09T13:56:38;100699.09;;;24.44;97.82
40998;BME280;26740;45.944;12.480;2022-09-09T13:59:08;100690.06;;;24.30;100.00
40998;BME280;26740;45.944;12.480;2022-09-09T14:01:34;100693.78;;;24.09;100.00
40998;BME280;26740;45.944;12.480;2022-09-09T14:04:00;100693.94;;;24.13;100.00
40998;BME280;26740;45.944;12.480;2022-09-09T14:06:26;100687.66;;;24.19;100.00
40998;BME280;26740;45.944;12.480;2022-09-09T14:08:54;100680.13;;;24.23;100.00
40998;BME280;26740;45.944;12.480;2022-09-09T14:11:20;100686.97;;;24.22;100.00
40998;BME280;26740;45.944;12.480;2022-09-09T14:13:47;100689.84;;;24.35;100.00
40998;BME280;26740;45.944;12.480;2022-09-09T14:16:17;100696.22;;;24.32;100.00
40998;BME280;26740;45.944;12.480;2022-09-09T14:18:43;100710.09;;;24.46;100.00
40998;BME280;26740;45.944;12.480;2022-09-09T14:21:10;100699.03;;;24.32;100.00
40998;BME280;26740;45.944;12.480;2022-09-09T14:23:36;100704.00;;;24.22;100.00
40998;BME280;26740;45.944;12.480;2022-09-09T14:26:04;100695.47;;;24.22;100.00
40998;BME280;26740;45.944;12.480;2022-09-09T14:28:30;100706.75;;;24.31;100.00
40998;BME280;26740;45.944;12.480;2022-09-09T14:30:59;100720.06;;;24.52;100.00
40998;BME280;26740;45.944;12.480;2022-09-09T14:33:26;100734.66;;;24.63;100.00
40998;BME280;26740;45.944;12.480;2022-09-09T14:35:58;100727.91;;;24.55;100.00
40998;BME280;26740;45.944;12.480;2022-09-09T14:38:24;100734.91;;;24.36;100.00
40998;BME280;26740;45.944;12.480;2022-09-09T14:40:50;100736.72;;;24.41;100.00
40998;BME280;26740;45.944;12.480;2022-09-09T14:43:16;100742.03;;;24.42;100.00
40998;BME280;26740;45.944;12.480;2022-09-09T14:45:41;100747.84;;;24.46;100.00
40998;BME280;26740;45.944;12.480;2022-09-09T14:48:08;100747.53;;;24.27;100.00
40998;BME280;26740;45.944;12.480;2022-09-09T14:50:34;100752.53;;;24.42;100.00
40998;BME280;26740;45.944;12.480;2022-09-09T14:53:02;100759.13;;;24.55;100.00
40998;BME280;26740;45.944;12.480;2022-09-09T14:55:27;100757.75;;;24.73;100.00
40998;BME280;26740;45.944;12.480;2022-09-09T14:57:54;100760.66;;;25.10;99.69
40998;BME280;26740;45.944;12.480;2022-09-09T15:00:20;100757.81;;;25.10;100.00
40998;BME280;26740;45.944;12.480;2022-09-09T15:02:45;100742.03;;;24.88;100.00
40998;BME280;26740;45.944;12.480;2022-09-09T15:05:11;100738.97;;;24.93;100.00
40998;BME280;26740;45.944;12.480;2022-09-09T15:07:36;100743.06;;;25.29;100.00
40998;BME280;26740;45.944;12.480;2022-09-09T15:10:03;100745.41;;;25.52;100.00
40998;BME280;26740;45.944;12.480;2022-09-09T15:12:29;100747.75;;;25.50;100.00
40998;BME280;26740;45.944;12.480;2022-09-09T15:14:55;100737.66;;;25.77;100.00
40998;BME280;26740;45.944;12.480;2022-09-09T15:17:21;100733.03;;;25.85;100.00